Time;durP1;ratioP1;P1;durP2;ratioP2;P2;SDS_P1;SDS_P2;PMS_P1;PMS_P2;Temp;Humidity;BMP_temperature;BMP_pressure;BME280_temperature;BME280_humidity;BME280_pressure;Samples;Min_cycle;Max_cycle;Signal;HPM_P1;HPM_P2
2021/12/17 00:00:59;;;;;;;11.50;5.40;;;;;;;1.22;100.00;100648.03;5047523;28;20225;-55
2021/12/17 00:03:38;;;;;;;10.73;5.40;;;;;;;1.16;100.00;100654.16;5051819;28;20186;-54
2021/12/17 00:06:29;;;;;;;11.73;5.93;;;;;;;1.19;100.00;100648.94;5050751;28;20226;-52
2021/12/17 00:08:58;;;;;;;12.23;6.13;;;;;;;1.25;100.00;100658.22;5051459;28;20244;-52
2021/12/17 00:11:26;;;;;;;9.70;5.70;;;;;;;1.27;100.00;100659.03;5049588;28;20212;-53
2021/12/17 00:13:56;;;;;;;10.03;6.20;;;;;;;1.22;100.00;100654.00;5051863;28;20604;-57
2021/12/17 00:16:27;;;;;;;13.13;6.43;;;;;;;1.27;100.00;100654.72;5048992;28;20665;-56
2021/12/17 00:19:13;;;;;;;11.90;5.90;;;;;;;1.24;100.00;100654.81;5047608;28;20183;-52
2021/12/17 00:44:13;;;;;;;11.10;6.20;;;;;;;1.20;100.00;100654.94;5049797;28;20199;-53
2021/12/17 00:49:55;;;;;;;11.83;5.50;;;;;;;1.03;100.00;100641.66;4972005;28;20294;-51
2021/12/17 00:52:22;;;;;;;12.30;5.40;;;;;;;1.09;100.00;100644.91;4990639;28;20224;-56
2021/12/17 00:54:49;;;;;;;12.63;5.80;;;;;;;1.09;100.00;100645.78;5024903;28;20238;-53
2021/12/17 00:57:18;;;;;;;11.97;5.60;;;;;;;1.22;100.00;100643.72;5046543;28;20200;-55
2021/12/17 00:59:49;;;;;;;9.87;5.83;;;;;;;1.20;100.00;100636.94;5047129;28;20276;-53
2021/12/17 01:02:22;;;;;;;10.90;5.50;;;;;;;1.08;100.00;100633.78;5050258;28;20213;-52
2021/12/17 01:04:52;;;;;;;11.77;6.63;;;;;;;1.06;100.00;100624.44;5051185;28;20191;-54
2021/12/17 01:07:21;;;;;;;12.47;5.50;;;;;;;1.14;100.00;100620.78;5047725;28;20205;-54
2021/12/17 01:09:50;;;;;;;10.03;5.70;;;;;;;1.07;100.00;100619.25;5049830;28;20230;-51
2021/12/17 01:12:17;;;;;;;11.60;5.57;;;;;;;1.09;100.00;100617.47;5051947;28;20695;-51
2021/12/17 01:15:02;;;;;;;9.10;4.87;;;;;;;1.12;100.00;100625.13;5045044;28;20698;-51
2021/12/17 01:18:02;;;;;;;10.47;5.13;;;;;;;1.18;100.00;100618.94;5048132;28;20217;-54
2021/12/17 01:21:03;;;;;;;10.87;4.67;;;;;;;1.25;100.00;100617.91;5047655;28;20681;-50
2021/12/17 01:23:46;;;;;;;9.93;4.70;;;;;;;1.17;100.00;100615.53;5047495;28;20281;-52
2021/12/17 01:35:59;;;;;;;10.47;4.90;;;;;;;1.27;100.00;100610.97;5006075;28;20200;-54
2021/12/17 01:41:50;;;;;;;15.30;5.70;;;;;;;1.28;100.00;100601.56;5007194;28;20223;-56
2021/12/17 01:44:18;;;;;;;13.67;6.30;;;;;;;1.23;100.00;100599.09;5006112;28;20196;-52
2021/12/17 01:46:52;;;;;;;11.83;6.47;;;;;;;1.26;100.00;100604.16;5023018;28;20203;-53
2021/12/17 01:55:39;;;;;;;11.80;6.17;;;;;;;1.38;100.00;100594.41;5049203;28;20203;-57
2021/12/17 02:00:38;;;;;;;10.77;5.03;;;;;;;1.51;100.00;100600.91;5046097;28;20198;-57
2021/12/17 02:03:07;;;;;;;9.53;5.07;;;;;;;1.41;100.00;100596.88;5046242;28;20191;-54
2021/12/17 02:05:34;;;;;;;7.77;4.60;;;;;;;1.29;100.00;100592.94;5047390;28;20198;-58
2021/12/17 02:08:03;;;;;;;11.67;4.87;;;;;;;1.23;100.00;100601.66;5049859;28;20285;-52
2021/12/17 02:22:01;;;;;;;8.77;4.40;;;;;;;1.28;100.00;100571.50;5063026;28;20203;-56
2021/12/17 02:32:41;;;;;;;10.53;4.80;;;;;;;2.12;100.00;100601.69;5047763;28;20656;-53
2021/12/17 02:35:28;;;;;;;11.27;5.03;;;;;;;2.06;100.00;100595.81;5052188;28;20274;-52
2021/12/17 02:37:57;;;;;;;7.57;4.07;;;;;;;1.87;100.00;100598.13;5051434;28;20180;-54
2021/12/17 02:46:30;;;;;;;5.80;4.20;;;;;;;1.50;100.00;100588.09;5049701;28;20202;-53
2021/12/17 02:48:57;;;;;;;7.67;4.20;;;;;;;1.40;100.00;100585.78;5051570;28;20253;-51
2021/12/17 02:51:25;;;;;;;6.93;4.50;;;;;;;1.32;100.00;100585.13;5050921;28;20687;-52
2021/12/17 02:53:55;;;;;;;8.40;4.20;;;;;;;1.39;100.00;100575.50;5052213;28;20623;-58
2021/12/17 02:56:22;;;;;;;8.63;4.03;;;;;;;1.32;100.00;100569.69;5053085;28;20187;-52
2021/12/17 02:58:49;;;;;;;8.37;4.73;;;;;;;1.45;100.00;100565.03;5050950;28;20206;-53
2021/12/17 03:01:16;;;;;;;8.47;5.07;;;;;;;1.54;100.00;100551.91;5051387;28;20249;-50
2021/12/17 03:03:47;;;;;;;8.87;4.17;;;;;;;1.55;100.00;100553.59;5051503;28;20656;-55
2021/12/17 03:06:14;;;;;;;9.10;4.93;;;;;;;1.59;100.00;100544.88;5049559;28;20189;-57
2021/12/17 03:08:41;;;;;;;8.50;4.47;;;;;;;1.83;100.00;100546.75;5051745;28;20268;-51
2021/12/17 03:11:10;;;;;;;8.83;4.23;;;;;;;1.97;100.00;100551.50;5051021;28;20214;-52
2021/12/17 03:13:38;;;;;;;9.90;4.60;;;;;;;1.88;100.00;100553.47;5050885;28;20184;-53
2021/12/17 03:16:11;;;;;;;7.40;4.77;;;;;;;1.76;100.00;100559.81;5050747;28;20198;-52
2021/12/17 03:23:57;;;;;;;8.13;4.73;;;;;;;1.51;100.00;100551.16;5050755;28;20192;-53
2021/12/17 03:26:30;;;;;;;11.93;6.73;;;;;;;1.53;100.00;100554.53;5048835;28;20187;-54
2021/12/17 03:29:02;;;;;;;13.87;6.73;;;;;;;1.51;100.00;100539.13;5048681;28;20668;-56
2021/12/17 03:31:30;;;;;;;11.90;5.20;;;;;;;1.49;100.00;100546.03;5046440;28;20299;-51
2021/12/17 03:34:12;;;;;;;7.27;4.53;;;;;;;1.32;100.00;100552.53;5049777;28;20191;-57
2021/12/17 03:36:39;;;;;;;9.13;5.20;;;;;;;1.24;100.00;100545.91;5049919;28;20198;-54
2021/12/17 03:39:06;;;;;;;6.53;4.03;;;;;;;1.23;100.00;100546.81;5050503;28;20214;-51
2021/12/17 03:41:37;;;;;;;9.37;4.17;;;;;;;1.14;100.00;100547.88;5050766;28;20293;-53
2021/12/17 03:44:07;;;;;;;5.87;3.43;;;;;;;1.09;100.00;100550.59;5050350;28;20191;-53
2021/12/17 03:47:00;;;;;;;7.37;3.87;;;;;;;0.95;100.00;100552.72;5040249;28;20209;-53
2021/12/17 03:49:29;;;;;;;8.17;4.20;;;;;;;0.94;100.00;100554.44;5050377;28;20220;-54
2021/12/17 03:52:05;;;;;;;7.47;4.23;;;;;;;0.90;100.00;100554.56;5049143;28;20223;-54
2021/12/17 03:54:36;;;;;;;7.77;4.20;;;;;;;0.95;100.00;100560.44;5049451;28;20564;-52
2021/12/17 03:57:10;;;;;;;6.60;3.37;;;;;;;0.92;100.00;100552.78;5050514;28;20570;-54
2021/12/17 03:59:41;;;;;;;8.17;3.60;;;;;;;0.86;100.00;100561.53;5048571;28;20222;-57
2021/12/17 04:02:08;;;;;;;5.00;2.83;;;;;;;0.78;100.00;100550.59;5049915;28;20623;-53
2021/12/17 04:04:36;;;;;;;6.43;3.30;;;;;;;0.75;100.00;100560.97;5047320;28;20274;-54
2021/12/17 04:07:29;;;;;;;6.20;3.40;;;;;;;0.74;100.00;100560.09;5037074;28;20631;-54
2021/12/17 04:10:26;;;;;;;7.70;3.60;;;;;;;0.74;100.00;100562.69;5050663;28;20568;-54
2021/12/17 04:13:04;;;;;;;6.57;4.10;;;;;;;0.68;100.00;100549.97;5048925;28;20274;-53
2021/12/17 04:15:35;;;;;;;8.57;3.87;;;;;;;0.66;100.00;100554.31;5050175;28;20559;-50
2021/12/17 04:18:07;;;;;;;11.00;4.53;;;;;;;0.58;100.00;100554.53;5051129;28;20564;-50
2021/12/17 04:20:35;;;;;;;8.53;4.03;;;;;;;0.57;100.00;100547.69;5048819;28;20195;-50
2021/12/17 04:23:03;;;;;;;12.50;6.00;;;;;;;0.52;100.00;100549.53;5049927;28;20580;-51
2021/12/17 04:25:30;;;;;;;10.37;5.60;;;;;;;0.42;100.00;100552.34;5050675;28;20189;-53
2021/12/17 04:27:57;;;;;;;11.47;5.67;;;;;;;0.45;100.00;100543.72;5049284;28;20201;-51
2021/12/17 04:30:28;;;;;;;10.83;4.90;;;;;;;0.42;100.00;100552.34;5048866;28;20252;-52
2021/12/17 04:32:56;;;;;;;7.93;4.13;;;;;;;0.36;100.00;100551.66;5049425;28;20194;-53
2021/12/17 04:35:23;;;;;;;9.20;5.03;;;;;;;0.35;100.00;100543.09;5049124;28;20194;-54
2021/12/17 04:37:53;;;;;;;6.47;3.50;;;;;;;0.48;100.00;100550.50;5048112;28;20187;-54
2021/12/17 04:40:22;;;;;;;6.13;2.77;;;;;;;0.49;100.00;100549.63;5048646;28;20525;-58
2021/12/17 04:42:59;;;;;;;7.27;2.70;;;;;;;0.38;100.00;100542.19;5048671;28;20237;-53
2021/12/17 04:45:36;;;;;;;5.83;3.20;;;;;;;0.34;100.00;100550.88;5049389;28;20251;-51
2021/12/17 04:59:32;;;;;;;3.63;2.30;;;;;;;0.65;100.00;100552.63;5048506;28;20198;-55
2021/12/17 05:02:03;;;;;;;3.90;2.40;;;;;;;0.52;100.00;100559.81;5048775;28;20689;-55
2021/12/17 05:04:37;;;;;;;5.50;2.30;;;;;;;0.53;100.00;100556.38;5047859;28;20194;-54
2021/12/17 05:07:08;;;;;;;3.27;2.07;;;;;;;0.47;100.00;100544.53;5048446;28;20377;-53
2021/12/17 05:09:44;;;;;;;3.43;1.80;;;;;;;0.34;100.00;100543.97;5047020;28;20259;-53
2021/12/17 05:20:33;;;;;;;2.47;1.67;;;;;;;0.24;100.00;100537.38;5060676;28;20699;-51
2021/12/17 05:23:01;;;;;;;2.10;1.60;;;;;;;0.22;100.00;100528.88;5046545;28;20213;-54
2021/12/17 05:25:29;;;;;;;3.23;2.00;;;;;;;0.46;100.00;100524.00;5048830;28;20278;-55
2021/12/17 05:28:00;;;;;;;3.63;1.80;;;;;;;0.44;100.00;100518.91;5046345;28;20712;-51
2021/12/17 05:30:32;;;;;;;2.50;1.60;;;;;;;0.44;100.00;100517.19;5078574;28;20195;-51
2021/12/17 05:33:01;;;;;;;6.20;2.70;;;;;;;0.53;100.00;100518.66;5046621;28;20260;-56
2021/12/17 05:35:29;;;;;;;5.03;3.50;;;;;;;0.44;100.00;100514.59;5048514;28;20224;-54
2021/12/17 05:37:58;;;;;;;3.53;2.00;;;;;;;0.51;100.00;100509.31;5047382;28;20205;-54
2021/12/17 05:40:26;;;;;;;6.30;3.63;;;;;;;0.69;100.00;100506.25;5047589;28;20183;-53
2021/12/17 05:42:58;;;;;;;7.23;1.80;;;;;;;0.66;100.00;100511.47;5048168;28;20301;-53
2021/12/17 05:45:35;;;;;;;4.50;2.40;;;;;;;0.54;100.00;100510.06;5078108;28;20190;-52
2021/12/17 05:48:05;;;;;;;2.63;1.53;;;;;;;0.52;100.00;100511.84;5046395;28;20201;-55
2021/12/17 05:50:33;;;;;;;4.97;1.87;;;;;;;0.59;100.00;100512.53;5046451;28;20195;-54
2021/12/17 05:53:00;;;;;;;1.93;1.47;;;;;;;0.60;100.00;100514.22;5046825;28;20590;-53
2021/12/17 05:55:27;;;;;;;3.87;1.90;;;;;;;0.59;100.00;100515.09;5048802;28;20191;-51
2021/12/17 05:57:53;;;;;;;7.43;5.90;;;;;;;0.57;100.00;100515.13;5048094;28;20728;-51
2021/12/17 06:00:21;;;;;;;4.23;2.83;;;;;;;0.79;100.00;100529.16;5047104;28;20194;-53
2021/12/17 06:02:48;;;;;;;7.80;4.30;;;;;;;0.88;100.00;100522.03;5049653;28;20271;-54
2021/12/17 06:05:30;;;;;;;8.17;4.83;;;;;;;0.76;100.00;100524.09;5046453;28;20191;-54
2021/12/17 06:07:58;;;;;;;9.50;2.70;;;;;;;0.62;100.00;100525.28;5046684;28;20251;-52
2021/12/17 06:10:26;;;;;;;3.83;2.13;;;;;;;0.61;100.00;100523.63;5051344;28;20190;-53
2021/12/17 06:12:53;;;;;;;6.40;1.73;;;;;;;0.63;100.00;100532.13;5052032;28;20198;-54
2021/12/17 06:15:22;;;;;;;3.43;2.13;;;;;;;0.55;100.00;100542.59;5051268;28;20236;-52
2021/12/17 06:17:52;;;;;;;3.43;1.90;;;;;;;0.45;100.00;100543.72;5052007;28;20198;-56
2021/12/17 06:20:20;;;;;;;3.43;2.00;;;;;;;0.37;100.00;100546.47;5051113;28;20189;-54
2021/12/17 06:22:53;;;;;;;3.30;2.10;;;;;;;0.32;100.00;100563.72;5051963;28;20229;-54
2021/12/17 06:25:21;;;;;;;2.67;1.70;;;;;;;0.30;100.00;100550.06;5052110;28;20863;-52
2021/12/17 06:27:48;;;;;;;3.03;1.90;;;;;;;0.29;100.00;100559.53;5053153;28;20679;-53
2021/12/17 06:30:17;;;;;;;4.23;2.13;;;;;;;0.19;100.00;100562.34;5050423;28;20195;-56
2021/12/17 06:32:45;;;;;;;3.27;2.10;;;;;;;0.14;100.00;100560.72;5052525;28;20559;-55
2021/12/17 06:35:13;;;;;;;3.60;2.10;;;;;;;0.16;100.00;100557.28;5051056;28;20196;-53
2021/12/17 06:37:41;;;;;;;4.60;2.10;;;;;;;0.09;100.00;100564.28;5051788;28;20186;-52
2021/12/17 06:40:13;;;;;;;4.90;3.13;;;;;;;0.08;100.00;100570.31;5050701;28;20229;-52
2021/12/17 06:42:40;;;;;;;4.57;3.47;;;;;;;0.13;100.00;100571.88;5051040;28;20209;-54
2021/12/17 06:45:17;;;;;;;3.30;2.57;;;;;;;0.17;100.00;100579.50;5050570;28;20191;-51
2021/12/17 06:47:53;;;;;;;3.50;2.40;;;;;;;0.07;100.00;100573.75;5051330;28;20293;-56
2021/12/17 07:00:11;;;;;;;4.83;2.90;;;;;;;-0.12;100.00;100581.03;5049228;28;20288;-52
2021/12/17 07:06:22;;;;;;;6.07;4.10;;;;;;;-0.03;100.00;100593.66;5044029;28;20204;-54
2021/12/17 07:17:47;;;;;;;6.60;4.40;;;;;;;-0.21;100.00;100610.28;5050144;28;20238;-54
2021/12/17 07:20:56;;;;;;;5.43;3.77;;;;;;;-0.24;100.00;100607.81;5048727;28;20668;-57
2021/12/17 07:23:46;;;;;;;5.17;3.53;;;;;;;-0.19;100.00;100608.53;5053907;28;20296;-50
2021/12/17 07:35:24;;;;;;;6.43;3.07;;;;;;;-0.26;100.00;100636.06;5064191;28;20226;-56
2021/12/17 07:40:38;;;;;;;5.67;3.13;;;;;;;-0.18;100.00;100631.63;5004846;28;20209;-55
2021/12/17 07:43:12;;;;;;;5.43;3.40;;;;;;;-0.19;100.00;100631.66;5046737;28;20194;-56
2021/12/17 07:45:45;;;;;;;5.90;3.10;;;;;;;-0.14;100.00;100626.44;5046708;28;20192;-56
2021/12/17 07:48:25;;;;;;;5.47;3.00;;;;;;;-0.11;100.00;100629.75;5047024;28;20201;-57
2021/12/17 07:51:09;;;;;;;7.63;3.70;;;;;;;-0.09;100.00;100632.31;5046025;28;20607;-60
2021/12/17 07:54:08;;;;;;;6.27;3.53;;;;;;;0.20;100.00;100633.38;5047271;28;20197;-58
2021/12/17 07:56:37;;;;;;;4.47;3.17;;;;;;;0.34;100.00;100635.63;5047535;28;20198;-57
2021/12/17 07:59:13;;;;;;;4.57;2.57;;;;;;;0.29;100.00;100639.16;5046658;28;20772;-59
2021/12/17 08:01:41;;;;;;;4.03;2.33;;;;;;;0.20;100.00;100641.94;5045634;28;20228;-58
2021/12/17 08:04:11;;;;;;;6.33;2.83;;;;;;;0.23;100.00;100643.56;5046279;28;20238;-56
2021/12/17 08:06:56;;;;;;;3.43;2.33;;;;;;;0.20;100.00;100647.06;5046264;28;20202;-57
2021/12/17 08:09:28;;;;;;;9.00;2.20;;;;;;;0.23;100.00;100646.13;5046596;28;20585;-58
2021/12/17 08:11:57;;;;;;;5.23;2.67;;;;;;;0.24;100.00;100651.25;5045690;28;20229;-56
2021/12/17 08:14:31;;;;;;;8.17;3.60;;;;;;;0.29;100.00;100636.59;5046572;28;20190;-57
2021/12/17 08:17:12;;;;;;;4.33;2.60;;;;;;;0.33;100.00;100645.06;5047601;28;20187;-58
2021/12/17 08:25:17;;;;;;;5.40;2.50;;;;;;;0.44;100.00;100649.97;5046132;28;20195;-57
2021/12/17 08:28:04;;;;;;;3.93;2.00;;;;;;;0.47;100.00;100649.03;5046171;28;20202;-57
2021/12/17 08:30:38;;;;;;;8.00;2.83;;;;;;;0.52;100.00;100645.47;5045309;28;20228;-57
2021/12/17 08:33:14;;;;;;;4.10;2.10;;;;;;;0.60;100.00;100647.84;5045998;28;20592;-57
2021/12/17 08:35:42;;;;;;;3.73;2.67;;;;;;;0.59;100.00;100647.00;5045993;28;20201;-57
2021/12/17 08:38:17;;;;;;;4.90;3.30;;;;;;;0.62;100.00;100650.38;5045825;28;20195;-58
2021/12/17 08:40:44;;;;;;;4.57;2.90;;;;;;;0.67;100.00;100646.81;5048295;28;20223;-59
2021/12/17 08:43:11;;;;;;;16.67;10.98;;;;;;;0.78;100.00;100649.13;5034137;28;20433;-57
2021/12/17 08:45:44;;;;;;;9.70;4.70;;;;;;;0.78;100.00;100653.44;5032248;28;20740;-56
2021/12/17 08:48:39;;;;;;;27.10;14.07;;;;;;;0.80;100.00;100649.09;5033510;28;20184;-59
2021/12/17 08:51:30;;;;;;;9.00;5.17;;;;;;;0.79;100.00;100655.13;5031420;28;20701;-58
2021/12/17 08:53:58;;;;;;;7.97;4.07;;;;;;;0.84;100.00;100653.28;5031989;28;20286;-59
2021/12/17 08:56:30;;;;;;;8.27;4.53;;;;;;;0.91;100.00;100656.53;5032030;28;20230;-57
2021/12/17 08:58:57;;;;;;;16.70;9.77;;;;;;;0.96;100.00;100658.13;5033402;28;20227;-62
2021/12/17 09:01:30;;;;;;;12.87;8.27;;;;;;;1.01;100.00;100664.00;5031383;28;20208;-57
2021/12/17 09:03:57;;;;;;;17.23;9.73;;;;;;;1.09;100.00;100668.91;5032042;28;20202;-58
2021/12/17 09:06:32;;;;;;;17.07;8.77;;;;;;;1.09;100.00;100674.06;5032230;28;20199;-58
2021/12/17 09:09:00;;;;;;;16.20;8.70;;;;;;;1.15;100.00;100673.06;5032199;28;20206;-58
2021/12/17 09:11:31;;;;;;;10.43;5.83;;;;;;;1.23;100.00;100680.59;5032701;28;20225;-57
2021/12/17 09:14:07;;;;;;;5.60;3.77;;;;;;;1.24;100.00;100687.41;5032155;28;20199;-59
2021/12/17 09:16:52;;;;;;;9.03;5.97;;;;;;;1.37;100.00;100695.66;5034272;28;20202;-58
2021/12/17 09:19:22;;;;;;;13.47;9.10;;;;;;;1.41;100.00;100692.09;5040674;28;20206;-58
2021/12/17 09:21:57;;;;;;;13.80;7.30;;;;;;;1.45;100.00;100692.00;5050989;28;20210;-58
2021/12/17 09:24:41;;;;;;;12.27;6.00;;;;;;;1.52;100.00;100700.38;5051559;28;20556;-57
2021/12/17 09:27:30;;;;;;;10.17;5.60;;;;;;;1.52;100.00;100704.69;5051472;28;20187;-56
2021/12/17 09:30:19;;;;;;;9.50;4.87;;;;;;;1.54;100.00;100706.34;5051685;28;20199;-57
2021/12/17 09:32:47;;;;;;;7.90;4.43;;;;;;;1.56;100.00;100704.56;5052503;28;20209;-57
2021/12/17 09:35:14;;;;;;;6.17;3.50;;;;;;;1.58;100.00;100700.22;5051466;28;21015;-57
2021/12/17 09:37:42;;;;;;;6.73;4.20;;;;;;;1.68;100.00;100703.38;5052689;28;20270;-57
2021/12/17 09:40:12;;;;;;;9.20;4.03;;;;;;;1.75;100.00;100702.31;5051928;28;20222;-57
2021/12/17 09:42:42;;;;;;;5.00;3.60;;;;;;;1.81;100.00;100703.03;5052383;28;20207;-57
2021/12/17 09:45:10;;;;;;;5.47;2.87;;;;;;;1.83;100.00;100704.69;5052529;28;20198;-57
2021/12/17 09:47:37;;;;;;;7.53;4.00;;;;;;;1.87;100.00;100706.28;5052512;28;20198;-57
2021/12/17 09:50:04;;;;;;;4.90;3.37;;;;;;;1.90;100.00;100711.34;5051787;28;20278;-58
2021/12/17 09:52:31;;;;;;;6.33;2.80;;;;;;;1.97;100.00;100704.28;5052233;28;20227;-57
2021/12/17 09:55:00;;;;;;;4.83;3.43;;;;;;;2.09;100.00;100718.56;5051299;28;20269;-56
2021/12/17 09:57:29;;;;;;;5.33;3.03;;;;;;;2.15;100.00;100708.03;5052345;28;20187;-58
2021/12/17 09:59:56;;;;;;;5.83;3.30;;;;;;;2.26;100.00;100705.16;5051476;28;20187;-57
2021/12/17 10:02:23;;;;;;;6.73;3.80;;;;;;;2.34;100.00;100697.19;5052176;28;20264;-56
2021/12/17 10:04:55;;;;;;;4.83;3.40;;;;;;;2.45;100.00;100695.13;5051922;28;20676;-57
2021/12/17 10:07:23;;;;;;;6.97;4.40;;;;;;;2.52;100.00;100695.81;5052474;28;20183;-57
2021/12/17 10:09:52;;;;;;;9.70;5.90;;;;;;;2.57;100.00;100695.63;5050083;28;20187;-58
2021/12/17 10:12:24;;;;;;;7.67;4.57;;;;;;;2.64;100.00;100690.25;5051946;28;20259;-55
2021/12/17 10:15:05;;;;;;;8.77;4.27;;;;;;;2.76;100.00;100689.00;5051961;28;20266;-56
2021/12/17 10:17:33;;;;;;;6.87;3.60;;;;;;;2.82;100.00;100682.78;5051934;28;20191;-57
2021/12/17 10:20:00;;;;;;;4.33;2.77;;;;;;;2.91;100.00;100689.41;5051119;28;20207;-58
2021/12/17 10:22:29;;;;;;;2.93;1.90;;;;;;;3.00;100.00;100683.06;5052019;28;20200;-59
2021/12/17 10:25:03;;;;;;;3.13;2.20;;;;;;;3.05;100.00;100683.78;5051877;28;20273;-57
2021/12/17 10:27:33;;;;;;;4.37;2.83;;;;;;;3.12;100.00;100669.78;5051812;28;20191;-58
2021/12/17 10:30:11;;;;;;;6.27;3.73;;;;;;;3.21;100.00;100660.84;5050733;28;20199;-58
2021/12/17 10:32:42;;;;;;;4.63;3.40;;;;;;;3.29;100.00;100658.84;5051697;28;20238;-58
2021/12/17 10:35:11;;;;;;;6.40;3.87;;;;;;;3.34;100.00;100658.72;5051844;28;20270;-58
2021/12/17 10:37:41;;;;;;;5.07;3.27;;;;;;;3.42;100.00;100663.59;5052281;28;20179;-58
2021/12/17 10:40:18;;;;;;;5.30;2.90;;;;;;;3.49;100.00;100667.63;5051510;28;20203;-58
2021/12/17 10:42:54;;;;;;;8.93;5.97;;;;;;;3.57;100.00;100669.97;5051810;28;20430;-58
2021/12/17 10:45:26;;;;;;;21.73;11.17;;;;;;;3.65;100.00;100665.34;5052443;28;20903;-58
2021/12/17 10:51:16;;;;;;;18.93;9.67;;;;;;;3.81;100.00;100660.47;5028841;28;20216;-59
2021/12/17 10:53:45;;;;;;;11.77;6.70;;;;;;;3.87;100.00;100674.88;5048718;28;20580;-58
2021/12/17 10:56:16;;;;;;;9.77;6.00;;;;;;;4.01;100.00;100674.38;5052085;28;20218;-59
2021/12/17 10:58:55;;;;;;;11.17;7.20;;;;;;;4.05;100.00;100681.13;5052171;28;20198;-56
2021/12/17 11:01:31;;;;;;;10.53;6.90;;;;;;;4.11;100.00;100678.28;5051047;28;20210;-55
2021/12/17 11:04:08;;;;;;;11.97;7.07;;;;;;;4.18;100.00;100673.72;5051963;28;20270;-55
2021/12/17 11:06:44;;;;;;;10.20;6.23;;;;;;;4.19;100.00;100678.84;5051076;28;20304;-55
2021/12/17 11:09:33;;;;;;;11.83;6.80;;;;;;;4.24;99.50;100674.31;5051053;28;20210;-56
2021/12/17 11:12:02;;;;;;;9.15;6.00;;;;;;;4.28;100.00;100675.88;5050517;28;20447;-59
2021/12/17 11:14:30;;;;;;;9.10;5.67;;;;;;;4.34;100.00;100676.53;5051113;28;20190;-56
2021/12/17 11:16:57;;;;;;;10.40;5.93;;;;;;;4.36;100.00;100678.19;5051596;28;20184;-58
2021/12/17 11:19:23;;;;;;;9.90;6.60;;;;;;;4.39;100.00;100675.47;5051642;28;20614;-59
2021/12/17 11:21:51;;;;;;;12.67;6.13;;;;;;;4.43;98.51;100679.63;5048592;28;20230;-59
2021/12/17 11:24:18;;;;;;;13.73;6.10;;;;;;;4.47;98.42;100674.34;5050701;28;20313;-59
2021/12/17 11:26:45;;;;;;;10.40;5.40;;;;;;;4.52;98.76;100672.41;5046991;28;20190;-58
2021/12/17 11:29:14;;;;;;;7.83;4.93;;;;;;;4.54;98.21;100676.59;5051451;28;20199;-59
2021/12/17 11:31:42;;;;;;;5.50;4.20;;;;;;;4.57;95.75;100670.47;5050519;28;20297;-58
2021/12/17 11:34:10;;;;;;;8.20;4.40;;;;;;;4.61;95.42;100677.22;5050312;28;20199;-59
2021/12/17 11:36:37;;;;;;;6.23;3.93;;;;;;;4.64;95.53;100673.66;5051352;28;20262;-59
2021/12/17 11:39:12;;;;;;;6.47;4.10;;;;;;;4.67;94.51;100678.69;5051407;28;20206;-58
2021/12/17 11:41:52;;;;;;;8.30;5.07;;;;;;;4.72;93.49;100667.28;5050463;28;20275;-59
2021/12/17 11:44:26;;;;;;;7.23;5.00;;;;;;;4.75;94.01;100649.94;5051398;28;20190;-59
2021/12/17 11:47:03;;;;;;;9.90;5.53;;;;;;;4.81;94.35;100644.47;5051536;28;20198;-57
2021/12/17 11:49:35;;;;;;;8.90;5.93;;;;;;;4.85;94.33;100644.31;5051407;28;20218;-58
2021/12/17 11:52:02;;;;;;;8.83;6.20;;;;;;;4.89;93.83;100639.84;5051065;28;20305;-57
2021/12/17 11:54:34;;;;;;;8.73;6.00;;;;;;;4.92;94.26;100642.28;5051321;28;20183;-59
2021/12/17 11:57:10;;;;;;;9.47;6.03;;;;;;;4.94;93.87;100632.72;5051337;28;20215;-59
2021/12/17 11:59:41;;;;;;;12.97;6.47;;;;;;;5.02;92.83;100637.59;5049790;28;20556;-59
2021/12/17 12:02:16;;;;;;;11.07;6.83;;;;;;;5.07;92.76;100642.56;5050473;28;20684;-58
2021/12/17 12:04:49;;;;;;;10.97;6.03;;;;;;;5.13;92.52;100643.16;5049846;28;20191;-59
2021/12/17 12:07:19;;;;;;;9.17;5.37;;;;;;;5.17;92.37;100644.69;5050576;28;20601;-57
2021/12/17 12:10:08;;;;;;;8.40;5.70;;;;;;;5.24;92.18;100641.84;5049769;28;20245;-58
2021/12/17 12:12:58;;;;;;;9.27;6.40;;;;;;;5.29;91.86;100640.72;5050169;28;20475;-59
2021/12/17 12:15:34;;;;;;;9.13;5.90;;;;;;;5.33;91.77;100638.81;5050976;28;20194;-58
2021/12/17 12:18:18;;;;;;;10.27;5.90;;;;;;;5.41;91.50;100633.31;5052394;28;20191;-58
2021/12/17 12:20:59;;;;;;;8.50;5.50;;;;;;;5.45;91.18;100625.34;5053899;28;20223;-59
2021/12/17 12:23:47;;;;;;;8.37;6.07;;;;;;;5.53;90.15;100617.25;5054068;28;20274;-58
2021/12/17 12:26:37;;;;;;;8.07;5.40;;;;;;;5.57;89.83;100628.28;5054040;28;20187;-58
2021/12/17 12:29:16;;;;;;;7.97;5.20;;;;;;;5.61;88.60;100629.84;5053666;28;20679;-54
2021/12/17 12:31:58;;;;;;;7.97;5.67;;;;;;;5.62;89.16;100626.34;5050198;28;20215;-52
2021/12/17 12:34:34;;;;;;;10.70;7.03;;;;;;;5.68;88.66;100625.22;5050040;28;20215;-56
2021/12/17 12:37:04;;;;;;;10.37;6.30;;;;;;;5.72;88.50;100619.81;5052033;28;20229;-54
2021/12/17 12:39:35;;;;;;;10.93;6.97;;;;;;;5.75;88.41;100617.09;5051488;28;20183;-57
2021/12/17 12:42:06;;;;;;;9.20;5.10;;;;;;;5.79;88.89;100623.00;5053262;28;20207;-55
2021/12/17 12:45:08;;;;;;;9.03;5.17;;;;;;;5.82;89.07;100616.81;5051086;28;20695;-59
2021/12/17 12:47:51;;;;;;;8.57;4.80;;;;;;;5.89;88.98;100615.63;5047554;28;20249;-55
2021/12/17 12:50:24;;;;;;;32.73;14.70;;;;;;;6.00;87.35;100620.28;5051161;28;20531;-52
2021/12/17 12:52:54;;;;;;;12.17;7.07;;;;;;;6.04;86.81;100617.53;5050272;28;20226;-60
2021/12/17 12:55:24;;;;;;;7.13;4.50;;;;;;;6.10;85.49;100631.94;5045626;28;20230;-54
2021/12/17 12:57:52;;;;;;;8.73;4.63;;;;;;;6.19;85.58;100622.91;5050493;28;20278;-52
2021/12/17 13:00:24;;;;;;;6.53;4.10;;;;;;;6.23;85.06;100619.25;5048225;28;20211;-59
2021/12/17 13:02:55;;;;;;;5.80;4.30;;;;;;;6.27;85.30;100618.19;5054014;28;20206;-60
2021/12/17 13:05:24;;;;;;;10.23;5.47;;;;;;;6.32;83.26;100611.03;5053885;28;20192;-60
2021/12/17 13:07:53;;;;;;;6.33;3.83;;;;;;;6.44;82.19;100622.56;5053330;28;20187;-60
2021/12/17 13:10:23;;;;;;;7.43;4.37;;;;;;;6.62;79.56;100618.19;5052307;28;20183;-60
2021/12/17 13:12:54;;;;;;;9.30;6.53;;;;;;;6.73;78.42;100622.03;5054013;28;20294;-59
2021/12/17 13:15:39;;;;;;;8.87;6.13;;;;;;;6.75;78.54;100620.19;5053917;28;20187;-61
2021/12/17 13:21:18;;;;;;;6.40;4.27;;;;;;;7.09;76.33;100619.31;5027008;28;20220;-60
2021/12/17 13:23:52;;;;;;;6.60;4.30;;;;;;;7.19;75.05;100616.22;5053359;28;20183;-61
2021/12/17 13:26:23;;;;;;;5.60;3.77;;;;;;;7.22;75.14;100621.28;5053334;28;20191;-60
2021/12/17 13:29:05;;;;;;;6.07;3.80;;;;;;;7.30;74.23;100615.69;5053679;28;20194;-61
2021/12/17 13:31:38;;;;;;;5.60;3.90;;;;;;;7.23;75.54;100607.38;5053016;28;20235;-59
2021/12/17 13:34:19;;;;;;;5.97;3.90;;;;;;;7.15;77.17;100612.97;5051250;28;20195;-60
2021/12/17 13:37:03;;;;;;;8.53;5.47;;;;;;;7.19;76.95;100604.09;5049019;28;20203;-61
2021/12/17 13:39:35;;;;;;;6.13;3.87;;;;;;;7.26;75.42;100601.19;5053113;28;20246;-58
2021/12/17 13:42:03;;;;;;;6.53;4.17;;;;;;;7.34;76.11;100597.25;5052821;28;20195;-58
2021/12/17 13:44:40;;;;;;;6.10;4.20;;;;;;;7.39;74.63;100591.81;5053368;28;20219;-58
2021/12/17 13:47:26;;;;;;;6.03;4.17;;;;;;;7.66;75.01;100591.25;5053231;28;20194;-59
2021/12/17 13:50:00;;;;;;;9.43;4.70;;;;;;;7.71;73.19;100597.03;5043327;28;20199;-58
2021/12/17 13:52:33;;;;;;;8.40;4.40;;;;;;;7.93;72.98;100596.72;5050610;28;20649;-58
2021/12/17 13:55:07;;;;;;;5.80;3.93;;;;;;;8.18;71.91;100587.50;5049438;28;20728;-56
2021/12/17 13:57:34;;;;;;;6.90;4.30;;;;;;;8.25;70.99;100588.00;5051794;28;20191;-59
2021/12/17 14:00:10;;;;;;;6.17;3.83;;;;;;;8.11;71.56;100591.38;5052414;28;20317;-57
2021/12/17 14:02:42;;;;;;;6.10;4.33;;;;;;;8.22;71.45;100593.38;5052897;28;20574;-59
2021/12/17 14:05:14;;;;;;;7.80;4.30;;;;;;;8.08;71.08;100592.41;5053172;28;20266;-58
2021/12/17 14:07:49;;;;;;;6.63;4.13;;;;;;;7.86;71.90;100586.72;5053104;28;20265;-59
2021/12/17 14:10:18;;;;;;;7.50;4.87;;;;;;;7.58;72.37;100588.22;5052637;28;20384;-55
2021/12/17 14:12:46;;;;;;;7.20;4.83;;;;;;;7.39;74.10;100592.66;5052732;28;20256;-55
2021/12/17 14:15:18;;;;;;;7.57;4.40;;;;;;;7.24;74.20;100599.50;5053062;28;20274;-55